Terminal Aerodrome Forecast
Issued by NWS

Home | Current Version | Previous Version | Text Only | Print | Product List | Glossary On
Versions: 1 2 3 4 5 6 7 8 9 10 11 12 13 14 15 16 17 18 19 20 21 22 23 24
000
FTUS41 KOKX 180200 AAA
TAFSWF
TAF AMD
KSWF 180204Z 1802/1906 VRB03KT P6SM FEW070 SCT250
     FM181500 31006KT P6SM FEW050 SCT250
     FM190200 35008KT P6SM FEW050
      AMD NOT SKED=

USA.gov is the U.S. government's official web portal to all federal, state and local government web resources and services.